Time;durP1;ratioP1;P1;durP2;ratioP2;P2;SDS_P1;SDS_P2;PMS_P1;PMS_P2;Temp;Humidity;BMP_temperature;BMP_pressure;BME280_temperature;BME280_humidity;BME280_pressure;Samples;Min_cycle;Max_cycle;Signal;HPM_P1;HPM_P2
2022/10/22 00:00:10;;;;;;;;;;;13.40;99.90;;;;;;4966872;28;20067;-76
2022/10/22 00:02:36;;;;;;;;;;;13.30;99.90;;;;;;4967003;28;19976;-76
2022/10/22 00:05:01;;;;;;;;;;;13.20;99.90;;;;;;4967817;28;19914;-76
2022/10/22 00:07:27;;;;;;;;;;;13.20;99.90;;;;;;4967523;28;19914;-76
2022/10/22 00:09:52;;;;;;;;;;;13.20;99.90;;;;;;4963446;28;19914;-76
2022/10/22 00:12:18;;;;;;;;;;;13.40;99.90;;;;;;4968246;28;19914;-76
2022/10/22 00:14:43;;;;;;;;;;;13.40;99.90;;;;;;4967541;28;19910;-76
2022/10/22 00:17:08;;;;;;;;;;;13.40;99.90;;;;;;4964626;28;19960;-76
2022/10/22 00:19:34;;;;;;;;;;;13.30;99.90;;;;;;4962000;28;20014;-76
2022/10/22 00:21:59;;;;;;;;;;;13.30;99.90;;;;;;4965171;28;19910;-76
2022/10/22 00:24:25;;;;;;;;;;;13.30;99.90;;;;;;4959931;28;19942;-76
2022/10/22 00:26:51;;;;;;;;;;;13.30;99.90;;;;;;4961791;28;19921;-76
2022/10/22 00:29:18;;;;;;;;;;;13.20;99.90;;;;;;4958110;28;19937;-77
2022/10/22 00:31:48;;;;;;;;;;;13.20;99.90;;;;;;4962280;28;19917;-76
2022/10/22 00:34:18;;;;;;;;;;;13.30;99.90;;;;;;4955332;28;20548;-75
2022/10/22 00:36:44;;;;;;;;;;;13.30;99.90;;;;;;4964969;28;19941;-76
2022/10/22 00:39:11;;;;;;;;;;;13.20;99.90;;;;;;4961226;28;20404;-75
2022/10/22 00:41:38;;;;;;;;;;;13.20;99.90;;;;;;4962420;28;19997;-75
2022/10/22 00:44:04;;;;;;;;;;;13.20;99.90;;;;;;4964293;28;19964;-76
2022/10/22 00:46:29;;;;;;;;;;;13.20;99.90;;;;;;4966318;28;19910;-76
2022/10/22 00:48:57;;;;;;;;;;;13.20;99.90;;;;;;4965284;28;20377;-76
2022/10/22 00:51:24;;;;;;;;;;;13.10;99.90;;;;;;4957151;28;19918;-76
2022/10/22 00:53:54;;;;;;;;;;;13.00;99.90;;;;;;4963726;28;19924;-75
2022/10/22 00:56:20;;;;;;;;;;;12.90;99.90;;;;;;4965403;28;19996;-76
2022/10/22 00:58:52;;;;;;;;;;;12.80;99.90;;;;;;4965825;28;20600;-75
2022/10/22 01:01:20;;;;;;;;;;;12.70;99.90;;;;;;4966020;28;19918;-76
2022/10/22 01:03:49;;;;;;;;;;;12.70;99.90;;;;;;4959908;28;19969;-75
2022/10/22 01:06:20;;;;;;;;;;;12.70;99.90;;;;;;4955629;28;19924;-76
2022/10/22 01:08:59;;;;;;;;;;;12.70;99.90;;;;;;4962920;28;19928;-76
2022/10/22 01:11:42;;;;;;;;;;;12.70;99.90;;;;;;4959336;28;20053;-75
2022/10/22 01:14:34;;;;;;;;;;;12.70;99.90;;;;;;4962577;28;19911;-75
2022/10/22 01:17:03;;;;;;;;;;;12.70;99.90;;;;;;4926157;28;19910;-75
2022/10/22 01:19:35;;;;;;;;;;;12.70;99.90;;;;;;4962734;28;19910;-75
2022/10/22 01:22:27;;;;;;;;;;;12.80;99.90;;;;;;4963626;28;19910;-75
2022/10/22 01:25:02;;;;;;;;;;;12.80;99.90;;;;;;4961777;28;19910;-75
2022/10/22 01:27:46;;;;;;;;;;;12.90;99.90;;;;;;4958566;28;20378;-75
2022/10/22 01:30:13;;;;;;;;;;;13.00;99.90;;;;;;4958343;28;20476;-75
2022/10/22 01:32:41;;;;;;;;;;;13.20;99.90;;;;;;4961176;28;19974;-76
2022/10/22 01:35:09;;;;;;;;;;;13.30;99.90;;;;;;4961361;28;19983;-75
2022/10/22 01:37:41;;;;;;;;;;;13.40;99.90;;;;;;4958246;28;19915;-76
2022/10/22 01:40:07;;;;;;;;;;;13.30;99.90;;;;;;4965142;28;19918;-75
2022/10/22 01:42:33;;;;;;;;;;;13.20;99.90;;;;;;4963639;28;19965;-75
2022/10/22 01:44:58;;;;;;;;;;;13.10;99.90;;;;;;4962705;28;19953;-76
2022/10/22 01:47:41;;;;;;;;;;;13.00;99.90;;;;;;4971495;28;20000;-76
2022/10/22 01:50:27;;;;;;;;;;;12.90;99.90;;;;;;4965492;28;19918;-76
2022/10/22 01:53:05;;;;;;;;;;;12.90;99.90;;;;;;4968619;28;19914;-75
2022/10/22 01:55:40;;;;;;;;;;;12.70;99.90;;;;;;4963620;28;19918;-75
2022/10/22 01:58:15;;;;;;;;;;;12.70;99.90;;;;;;4965781;28;20142;-75
2022/10/22 02:00:45;;;;;;;;;;;12.70;99.90;;;;;;4968975;28;20413;-75
2022/10/22 02:03:17;;;;;;;;;;;12.70;99.90;;;;;;4967357;28;19910;-75
2022/10/22 02:05:48;;;;;;;;;;;12.60;99.90;;;;;;4966811;28;19922;-75
2022/10/22 02:08:16;;;;;;;;;;;12.60;99.90;;;;;;4964320;28;19910;-75
2022/10/22 02:10:43;;;;;;;;;;;12.60;99.90;;;;;;4962876;28;19930;-76
2022/10/22 02:13:23;;;;;;;;;;;12.70;99.90;;;;;;4965895;28;20391;-75
2022/10/22 02:15:50;;;;;;;;;;;12.80;99.90;;;;;;4962947;28;19933;-75
2022/10/22 02:18:18;;;;;;;;;;;13.10;99.90;;;;;;4960913;28;19917;-75
2022/10/22 02:20:43;;;;;;;;;;;13.20;99.90;;;;;;4966382;28;19911;-75
2022/10/22 02:23:09;;;;;;;;;;;13.10;99.90;;;;;;4962070;28;19937;-76
2022/10/22 02:25:36;;;;;;;;;;;13.00;99.90;;;;;;4968893;28;19921;-76
2022/10/22 02:28:09;;;;;;;;;;;13.00;99.90;;;;;;4969353;28;19989;-75
2022/10/22 02:30:37;;;;;;;;;;;12.90;99.90;;;;;;4963855;28;19944;-76
2022/10/22 02:33:07;;;;;;;;;;;12.80;99.90;;;;;;4965034;28;19957;-76
2022/10/22 02:35:32;;;;;;;;;;;12.80;99.90;;;;;;4967978;28;19922;-76
2022/10/22 02:37:58;;;;;;;;;;;12.80;99.90;;;;;;4968610;28;20336;-76
2022/10/22 02:40:24;;;;;;;;;;;12.80;99.90;;;;;;4969463;28;19937;-75
2022/10/22 02:42:49;;;;;;;;;;;12.90;99.90;;;;;;4964998;28;20019;-76
2022/10/22 02:45:16;;;;;;;;;;;12.90;99.90;;;;;;4959870;28;20320;-75
2022/10/22 02:47:41;;;;;;;;;;;13.00;99.90;;;;;;4963226;28;19918;-76
2022/10/22 02:50:07;;;;;;;;;;;12.90;99.90;;;;;;4966141;28;19917;-75
2022/10/22 02:52:32;;;;;;;;;;;12.90;99.90;;;;;;4968060;28;19937;-75
2022/10/22 02:54:57;;;;;;;;;;;12.80;99.90;;;;;;4964134;28;19912;-76
2022/10/22 02:57:23;;;;;;;;;;;12.90;99.90;;;;;;4963925;28;19993;-75
2022/10/22 02:59:48;;;;;;;;;;;12.90;99.90;;;;;;4966044;28;19944;-76
2022/10/22 03:02:20;;;;;;;;;;;12.90;99.90;;;;;;4967268;28;20183;-75
2022/10/22 03:04:45;;;;;;;;;;;12.90;99.90;;;;;;4965834;28;19913;-78
2022/10/22 03:07:11;;;;;;;;;;;12.70;99.90;;;;;;4966935;28;20004;-78
2022/10/22 03:09:36;;;;;;;;;;;12.90;99.90;;;;;;4962500;28;19976;-76
2022/10/22 03:12:21;;;;;;;;;;;13.00;99.90;;;;;;4967972;28;19933;-76
2022/10/22 03:14:46;;;;;;;;;;;13.00;99.90;;;;;;4961282;28;19917;-76
2022/10/22 03:17:12;;;;;;;;;;;13.20;99.90;;;;;;4962430;28;19914;-76
2022/10/22 03:19:37;;;;;;;;;;;13.20;99.90;;;;;;4966800;28;19913;-76
2022/10/22 03:22:04;;;;;;;;;;;13.10;99.90;;;;;;4956999;28;20281;-77
2022/10/22 03:24:35;;;;;;;;;;;13.00;99.90;;;;;;4963505;28;19961;-76
2022/10/22 03:27:00;;;;;;;;;;;12.90;99.90;;;;;;4956514;28;20377;-76
2022/10/22 03:29:26;;;;;;;;;;;12.90;99.90;;;;;;4966658;28;19917;-76
2022/10/22 03:31:52;;;;;;;;;;;12.80;99.90;;;;;;4954766;28;19913;-76
2022/10/22 03:34:17;;;;;;;;;;;12.70;99.90;;;;;;4960518;28;19937;-76
2022/10/22 03:36:43;;;;;;;;;;;12.70;99.90;;;;;;4954601;28;19914;-76
2022/10/22 03:39:11;;;;;;;;;;;12.70;99.90;;;;;;4959520;28;20298;-76
2022/10/22 03:41:36;;;;;;;;;;;12.70;99.90;;;;;;4956538;28;19917;-76
2022/10/22 03:44:03;;;;;;;;;;;12.70;99.90;;;;;;4961874;28;19910;-76
2022/10/22 03:46:28;;;;;;;;;;;12.60;99.90;;;;;;4964642;28;19918;-76
2022/10/22 03:48:54;;;;;;;;;;;12.70;99.90;;;;;;4961168;28;19914;-76
2022/10/22 03:51:19;;;;;;;;;;;12.70;99.90;;;;;;4963594;28;20444;-76
2022/10/22 03:53:44;;;;;;;;;;;12.70;99.90;;;;;;4966609;28;19925;-75
2022/10/22 03:56:10;;;;;;;;;;;12.60;99.90;;;;;;4962629;28;19934;-76
2022/10/22 03:58:37;;;;;;;;;;;12.60;99.90;;;;;;4967183;28;19910;-76
2022/10/22 04:01:03;;;;;;;;;;;12.50;99.90;;;;;;4964756;28;20006;-76
2022/10/22 04:03:29;;;;;;;;;;;12.60;99.90;;;;;;4964855;28;20004;-76
2022/10/22 04:05:59;;;;;;;;;;;12.60;99.90;;;;;;4967118;28;20309;-75
2022/10/22 04:08:24;;;;;;;;;;;12.60;99.90;;;;;;4956864;28;19914;-76
2022/10/22 04:10:50;;;;;;;;;;;12.60;99.90;;;;;;4967063;28;19922;-76
2022/10/22 04:13:16;;;;;;;;;;;12.60;99.90;;;;;;4962980;28;20020;-76
2022/10/22 04:15:41;;;;;;;;;;;12.50;99.90;;;;;;4965933;28;20000;-76
2022/10/22 04:18:07;;;;;;;;;;;12.60;99.90;;;;;;4958450;28;19918;-76
2022/10/22 04:20:32;;;;;;;;;;;12.60;99.90;;;;;;4965801;28;20342;-75
2022/10/22 04:22:57;;;;;;;;;;;12.50;99.90;;;;;;4963246;28;19925;-76
2022/10/22 04:25:23;;;;;;;;;;;12.50;99.90;;;;;;4960373;28;19918;-76
2022/10/22 04:27:48;;;;;;;;;;;12.50;99.90;;;;;;4967167;28;19914;-76
2022/10/22 04:30:14;;;;;;;;;;;12.60;99.90;;;;;;4959640;28;19926;-76
2022/10/22 04:32:39;;;;;;;;;;;12.60;99.90;;;;;;4958855;28;19910;-76
2022/10/22 04:35:05;;;;;;;;;;;12.80;99.90;;;;;;4962010;28;20318;-76
2022/10/22 04:37:31;;;;;;;;;;;12.80;99.90;;;;;;4960088;28;19910;-76
2022/10/22 04:39:57;;;;;;;;;;;12.90;99.90;;;;;;4959207;28;19993;-76
2022/10/22 04:42:22;;;;;;;;;;;13.00;99.90;;;;;;4965269;28;20444;-76
2022/10/22 04:44:47;;;;;;;;;;;13.00;99.90;;;;;;4963344;28;19910;-76
2022/10/22 04:47:13;;;;;;;;;;;13.00;99.90;;;;;;4963697;28;19933;-76
2022/10/22 04:49:39;;;;;;;;;;;13.00;99.90;;;;;;4963949;28;20393;-76
2022/10/22 04:52:04;;;;;;;;;;;13.00;99.90;;;;;;4959270;28;19997;-76
2022/10/22 04:54:29;;;;;;;;;;;12.90;99.90;;;;;;4956985;28;19968;-76
2022/10/22 04:56:55;;;;;;;;;;;12.90;99.90;;;;;;4958471;28;19910;-76
2022/10/22 04:59:20;;;;;;;;;;;12.90;99.90;;;;;;4963944;28;19910;-76
2022/10/22 05:01:46;;;;;;;;;;;12.70;99.90;;;;;;4962891;28;19910;-75
2022/10/22 05:04:12;;;;;;;;;;;12.60;99.90;;;;;;4955755;28;19914;-76
2022/10/22 05:06:38;;;;;;;;;;;12.50;99.90;;;;;;4964739;28;20056;-76
2022/10/22 05:09:05;;;;;;;;;;;12.40;99.90;;;;;;4964694;28;20017;-76
2022/10/22 05:11:32;;;;;;;;;;;12.30;99.90;;;;;;4960111;28;19992;-76
2022/10/22 05:13:58;;;;;;;;;;;12.40;99.90;;;;;;4954892;28;19917;-76
2022/10/22 05:16:24;;;;;;;;;;;12.40;99.90;;;;;;4960790;28;19940;-75
2022/10/22 05:18:50;;;;;;;;;;;12.30;99.90;;;;;;4956647;28;20369;-76
2022/10/22 05:21:16;;;;;;;;;;;12.30;99.90;;;;;;4962769;28;20301;-76
2022/10/22 05:23:42;;;;;;;;;;;12.40;99.90;;;;;;4965372;28;19914;-76
2022/10/22 05:26:08;;;;;;;;;;;12.40;99.90;;;;;;4959263;28;20050;-76
2022/10/22 05:28:34;;;;;;;;;;;12.20;99.90;;;;;;4957026;28;20084;-76
2022/10/22 05:31:00;;;;;;;;;;;12.20;99.90;;;;;;4959701;28;20344;-76
2022/10/22 05:33:25;;;;;;;;;;;12.20;99.90;;;;;;4955465;28;19910;-76
2022/10/22 05:35:51;;;;;;;;;;;12.10;99.90;;;;;;4966167;28;19953;-76
2022/10/22 05:38:19;;;;;;;;;;;12.00;99.90;;;;;;4964327;28;20001;-76
2022/10/22 05:40:44;;;;;;;;;;;12.00;99.90;;;;;;4962997;28;19918;-75
2022/10/22 05:43:10;;;;;;;;;;;12.00;99.90;;;;;;4963994;28;20278;-75
2022/10/22 05:45:36;;;;;;;;;;;12.10;99.90;;;;;;4959054;28;20293;-76
2022/10/22 05:48:01;;;;;;;;;;;12.00;99.90;;;;;;4961419;28;20350;-76
2022/10/22 05:50:27;;;;;;;;;;;12.00;99.90;;;;;;4963100;28;19917;-76
2022/10/22 05:52:52;;;;;;;;;;;11.90;99.90;;;;;;4964592;28;19910;-76
2022/10/22 05:55:17;;;;;;;;;;;11.90;99.90;;;;;;4957927;28;19918;-76
2022/10/22 05:57:43;;;;;;;;;;;11.90;99.90;;;;;;4964540;28;19910;-76
2022/10/22 06:00:09;;;;;;;;;;;12.00;99.90;;;;;;4965389;28;19976;-76
2022/10/22 06:02:34;;;;;;;;;;;11.90;99.90;;;;;;4965361;28;19910;-76
2022/10/22 06:04:59;;;;;;;;;;;11.90;99.90;;;;;;4960056;28;19910;-75
2022/10/22 06:07:25;;;;;;;;;;;12.00;99.90;;;;;;4960199;28;20316;-76
2022/10/22 06:09:52;;;;;;;;;;;12.00;99.90;;;;;;4966469;28;19921;-76
2022/10/22 06:12:18;;;;;;;;;;;11.90;99.90;;;;;;4964933;28;19917;-76
2022/10/22 06:14:43;;;;;;;;;;;11.90;99.90;;;;;;4960067;28;20258;-76
2022/10/22 06:17:10;;;;;;;;;;;11.80;99.90;;;;;;4960907;28;20150;-76
2022/10/22 06:19:35;;;;;;;;;;;11.80;99.90;;;;;;4961263;28;19907;-76
2022/10/22 06:22:02;;;;;;;;;;;11.90;99.90;;;;;;4962651;28;19918;-76
2022/10/22 06:24:27;;;;;;;;;;;12.00;99.90;;;;;;4959439;28;19954;-76
2022/10/22 06:26:52;;;;;;;;;;;12.10;99.90;;;;;;4966693;28;19949;-76
2022/10/22 06:29:18;;;;;;;;;;;12.30;99.90;;;;;;4962034;28;19914;-76
2022/10/22 06:31:43;;;;;;;;;;;12.30;99.90;;;;;;4960075;28;19926;-76
2022/10/22 06:34:10;;;;;;;;;;;12.50;99.90;;;;;;4967969;28;19997;-76
2022/10/22 06:36:36;;;;;;;;;;;12.60;99.90;;;;;;4964407;28;19965;-77
2022/10/22 06:39:02;;;;;;;;;;;12.80;99.90;;;;;;4964485;28;19914;-76
2022/10/22 06:41:27;;;;;;;;;;;13.00;99.90;;;;;;4964577;28;19918;-76
2022/10/22 06:43:53;;;;;;;;;;;13.10;99.90;;;;;;4964727;28;19910;-77
2022/10/22 06:46:20;;;;;;;;;;;13.20;99.90;;;;;;4964615;28;19910;-76
2022/10/22 06:48:49;;;;;;;;;;;13.30;99.90;;;;;;4964349;28;19914;-76
2022/10/22 06:51:15;;;;;;;;;;;13.50;99.90;;;;;;4966550;28;19917;-76
2022/10/22 06:53:40;;;;;;;;;;;13.50;99.90;;;;;;4967244;28;19914;-76
2022/10/22 06:56:10;;;;;;;;;;;13.60;99.90;;;;;;4963330;28;19910;-76
2022/10/22 06:58:35;;;;;;;;;;;13.60;99.90;;;;;;4968698;28;19914;-76
2022/10/22 07:01:02;;;;;;;;;;;13.70;99.90;;;;;;4968007;28;19910;-76
2022/10/22 07:03:27;;;;;;;;;;;13.80;99.90;;;;;;4965298;28;20340;-76
2022/10/22 07:05:53;;;;;;;;;;;13.80;99.90;;;;;;4966253;28;19918;-76
2022/10/22 07:08:18;;;;;;;;;;;13.90;99.90;;;;;;4964461;28;19913;-74
2022/10/22 07:10:44;;;;;;;;;;;14.00;99.90;;;;;;4963775;28;19922;-75
2022/10/22 07:13:09;;;;;;;;;;;14.20;99.90;;;;;;4966661;28;19910;-75
2022/10/22 07:15:34;;;;;;;;;;;14.30;99.90;;;;;;4968152;28;21830;-76
2022/10/22 07:18:03;;;;;;;;;;;14.30;99.90;;;;;;4964500;28;20440;-75
2022/10/22 07:20:28;;;;;;;;;;;14.30;99.90;;;;;;4963492;28;20443;-75
2022/10/22 07:22:54;;;;;;;;;;;14.30;99.90;;;;;;4964136;28;19919;-76
2022/10/22 07:25:19;;;;;;;;;;;14.40;99.90;;;;;;4964105;28;19964;-76
2022/10/22 07:27:45;;;;;;;;;;;14.50;99.90;;;;;;4967113;28;19911;-76
2022/10/22 07:30:10;;;;;;;;;;;14.50;99.90;;;;;;4965260;28;19920;-77
2022/10/22 07:32:36;;;;;;;;;;;14.40;99.90;;;;;;4963115;28;19913;-77
2022/10/22 07:35:01;;;;;;;;;;;14.60;99.90;;;;;;4962731;28;19914;-77
2022/10/22 07:37:26;;;;;;;;;;;14.70;99.90;;;;;;4960889;28;19953;-76
2022/10/22 07:39:52;;;;;;;;;;;14.70;99.90;;;;;;4967693;28;19921;-76
2022/10/22 07:42:17;;;;;;;;;;;14.70;99.90;;;;;;4964543;28;19953;-77
2022/10/22 07:44:43;;;;;;;;;;;14.70;99.90;;;;;;4963773;28;19918;-76
2022/10/22 07:47:20;;;;;;;;;;;14.80;99.90;;;;;;4965289;28;20286;-82
2022/10/22 07:52:49;;;;;;;;;;;15.00;99.90;;;;;;4958423;28;21193;-80
2022/10/22 07:55:14;;;;;;;;;;;15.10;99.90;;;;;;4958063;28;20362;-77
2022/10/22 07:57:40;;;;;;;;;;;15.10;99.90;;;;;;4956547;28;19993;-76
2022/10/22 08:00:06;;;;;;;;;;;15.20;99.90;;;;;;4966774;28;19918;-78
2022/10/22 08:02:32;;;;;;;;;;;15.20;99.90;;;;;;4960426;28;20473;-81
2022/10/22 08:04:58;;;;;;;;;;;15.20;99.90;;;;;;4960029;28;19997;-81
2022/10/22 08:07:23;;;;;;;;;;;15.20;99.90;;;;;;4963661;28;20017;-77
2022/10/22 08:09:49;;;;;;;;;;;15.30;99.90;;;;;;4958486;28;20624;-75
2022/10/22 08:12:15;;;;;;;;;;;15.20;99.90;;;;;;4966107;28;19909;-84
2022/10/22 08:14:41;;;;;;;;;;;15.20;99.90;;;;;;4961963;28;19985;-80
2022/10/22 08:17:08;;;;;;;;;;;15.10;99.90;;;;;;4966380;28;19914;-79
2022/10/22 08:19:34;;;;;;;;;;;15.10;99.90;;;;;;4959372;28;20338;-78
2022/10/22 08:22:00;;;;;;;;;;;15.10;99.90;;;;;;4964397;28;19920;-77
2022/10/22 08:24:25;;;;;;;;;;;15.10;99.90;;;;;;4952907;28;19994;-77
2022/10/22 08:26:53;;;;;;;;;;;15.10;99.90;;;;;;4960427;28;19910;-77
2022/10/22 08:29:20;;;;;;;;;;;15.20;99.90;;;;;;4962961;28;20352;-76
2022/10/22 08:31:45;;;;;;;;;;;15.20;99.90;;;;;;4966505;28;20025;-74
2022/10/22 08:34:11;;;;;;;;;;;15.10;99.90;;;;;;4955980;28;20001;-81
2022/10/22 08:36:55;;;;;;;;;;;15.10;99.90;;;;;;4964242;28;19910;-81
2022/10/22 08:39:20;;;;;;;;;;;15.20;99.90;;;;;;4965843;28;20415;-82
2022/10/22 08:42:04;;;;;;;;;;;15.30;99.90;;;;;;4953749;28;19914;-81
2022/10/22 08:44:35;;;;;;;;;;;15.10;99.90;;;;;;4949663;28;19907;-82
2022/10/22 08:47:01;;;;;;;;;;;15.10;99.90;;;;;;4961255;28;20427;-82
2022/10/22 08:49:27;;;;;;;;;;;15.20;99.90;;;;;;4967172;28;19918;-81
2022/10/22 08:51:54;;;;;;;;;;;15.30;99.90;;;;;;4968193;28;19909;-81
2022/10/22 08:54:23;;;;;;;;;;;15.30;99.90;;;;;;4967045;28;19936;-82
2022/10/22 08:57:03;;;;;;;;;;;15.40;99.90;;;;;;4957820;28;19993;-81
2022/10/22 08:59:36;;;;;;;;;;;15.50;99.90;;;;;;4959949;28;20384;-81
2022/10/22 09:02:03;;;;;;;;;;;15.50;99.90;;;;;;4964952;28;19964;-81
2022/10/22 09:04:32;;;;;;;;;;;15.60;99.90;;;;;;4969057;28;19906;-81
2022/10/22 09:07:00;;;;;;;;;;;15.60;99.90;;;;;;4960144;28;19915;-82
2022/10/22 09:09:28;;;;;;;;;;;15.40;99.90;;;;;;4948933;28;19910;-81
2022/10/22 09:11:55;;;;;;;;;;;15.30;99.90;;;;;;4958435;28;19910;-81
2022/10/22 09:14:22;;;;;;;;;;;15.20;99.90;;;;;;4950273;28;19902;-81
2022/10/22 09:16:51;;;;;;;;;;;15.40;99.90;;;;;;4955155;28;19918;-81
2022/10/22 09:19:19;;;;;;;;;;;15.40;99.90;;;;;;4950141;28;19953;-80
2022/10/22 09:21:47;;;;;;;;;;;15.50;99.90;;;;;;4958628;28;20028;-81
2022/10/22 09:24:18;;;;;;;;;;;15.50;99.90;;;;;;4959174;28;20289;-80
2022/10/22 09:26:43;;;;;;;;;;;15.50;99.90;;;;;;4949544;28;20205;-80
2022/10/22 09:29:32;;;;;;;;;;;15.50;99.90;;;;;;4954736;28;20366;-76
2022/10/22 09:31:58;;;;;;;;;;;15.60;99.90;;;;;;4951807;28;20001;-81
2022/10/22 09:34:23;;;;;;;;;;;15.60;99.90;;;;;;4956938;28;19922;-78
2022/10/22 09:36:57;;;;;;;;;;;15.70;99.90;;;;;;4952205;28;20520;-77
2022/10/22 09:39:26;;;;;;;;;;;15.80;99.90;;;;;;4958443;28;21519;-82
2022/10/22 09:41:52;;;;;;;;;;;16.10;99.90;;;;;;4959629;28;20321;-77
2022/10/22 09:44:21;;;;;;;;;;;16.60;99.90;;;;;;4963304;28;19972;-78
2022/10/22 09:46:47;;;;;;;;;;;16.80;99.90;;;;;;4961081;28;19965;-76
2022/10/22 09:49:17;;;;;;;;;;;16.80;99.90;;;;;;4963565;28;19914;-79
2022/10/22 09:51:53;;;;;;;;;;;17.10;99.90;;;;;;4961793;28;19922;-76
2022/10/22 09:54:25;;;;;;;;;;;17.00;99.90;;;;;;4959924;28;19963;-77
2022/10/22 09:57:16;;;;;;;;;;;17.20;99.90;;;;;;4960714;28;19953;-76
2022/10/22 09:59:43;;;;;;;;;;;16.80;99.90;;;;;;4957041;28;20635;-77
2022/10/22 10:02:12;;;;;;;;;;;16.80;99.90;;;;;;4962338;28;19953;-76
2022/10/22 10:04:40;;;;;;;;;;;16.50;99.90;;;;;;4962895;28;19932;-77
2022/10/22 10:07:14;;;;;;;;;;;16.30;99.90;;;;;;4965629;28;19969;-76
2022/10/22 10:09:41;;;;;;;;;;;16.20;99.90;;;;;;4959234;28;19977;-76
2022/10/22 10:12:08;;;;;;;;;;;16.20;99.90;;;;;;4962844;28;19934;-77
2022/10/22 10:14:33;;;;;;;;;;;16.20;99.90;;;;;;4961475;28;20378;-78
2022/10/22 10:17:17;;;;;;;;;;;16.20;99.90;;;;;;4958365;28;19949;-78
2022/10/22 10:19:42;;;;;;;;;;;16.40;99.90;;;;;;4965945;28;19993;-78
2022/10/22 10:22:08;;;;;;;;;;;16.40;99.90;;;;;;4967015;28;20079;-77
2022/10/22 10:24:52;;;;;;;;;;;16.40;99.90;;;;;;4953731;28;20317;-76
2022/10/22 10:27:37;;;;;;;;;;;16.60;99.90;;;;;;4960125;28;19910;-73
2022/10/22 10:30:03;;;;;;;;;;;17.10;99.90;;;;;;4961274;28;20284;-74
2022/10/22 10:32:34;;;;;;;;;;;17.10;99.90;;;;;;4963970;28;19910;-77
2022/10/22 10:35:00;;;;;;;;;;;17.20;99.90;;;;;;4962251;28;20451;-76
2022/10/22 10:37:52;;;;;;;;;;;17.10;99.90;;;;;;4970666;28;19910;-76
2022/10/22 10:40:23;;;;;;;;;;;17.00;99.90;;;;;;4960365;28;19910;-77
2022/10/22 10:42:56;;;;;;;;;;;16.80;99.90;;;;;;4967765;28;20040;-76
2022/10/22 10:45:22;;;;;;;;;;;16.50;99.90;;;;;;4959250;28;19965;-78
2022/10/22 10:48:06;;;;;;;;;;;16.50;99.90;;;;;;4966174;28;19918;-81
2022/10/22 10:50:31;;;;;;;;;;;16.60;99.90;;;;;;4961168;28;20008;-77
2022/10/22 10:53:01;;;;;;;;;;;16.60;99.90;;;;;;4969165;28;20510;-77
2022/10/22 10:55:31;;;;;;;;;;;16.90;99.90;;;;;;4968606;28;19949;-76
2022/10/22 10:58:04;;;;;;;;;;;17.60;99.90;;;;;;4963424;28;19918;-81
2022/10/22 11:00:33;;;;;;;;;;;18.40;99.90;;;;;;4965651;28;19914;-83
2022/10/22 11:03:04;;;;;;;;;;;19.10;99.90;;;;;;4960266;28;19921;-77
2022/10/22 11:05:36;;;;;;;;;;;18.60;99.90;;;;;;4960695;28;20273;-81
2022/10/22 11:08:05;;;;;;;;;;;18.40;99.90;;;;;;4963758;28;19917;-77
2022/10/22 11:10:59;;;;;;;;;;;19.20;99.90;;;;;;4963309;28;19914;-78
2022/10/22 11:13:37;;;;;;;;;;;19.20;99.90;;;;;;4931373;28;19911;-76
2022/10/22 11:16:06;;;;;;;;;;;19.00;99.90;;;;;;4952884;28;19945;-77
2022/10/22 11:18:34;;;;;;;;;;;20.40;99.90;;;;;;4960756;28;19910;-76
2022/10/22 11:21:04;;;;;;;;;;;23.30;99.90;;;;;;4967281;28;19910;-76
2022/10/22 11:23:36;;;;;;;;;;;23.60;95.20;;;;;;4963229;28;19918;-75
2022/10/22 11:26:04;;;;;;;;;;;24.40;92.20;;;;;;4960639;28;19972;-76
2022/10/22 11:28:36;;;;;;;;;;;26.10;85.00;;;;;;4961276;28;20133;-76
2022/10/22 11:31:03;;;;;;;;;;;25.40;84.50;;;;;;4962862;28;20017;-75
2022/10/22 11:33:35;;;;;;;;;;;23.20;91.30;;;;;;4968529;28;20512;-77
2022/10/22 11:36:01;;;;;;;;;;;21.40;98.00;;;;;;4962411;28;19910;-76
2022/10/22 11:38:27;;;;;;;;;;;23.00;96.10;;;;;;4964538;28;19914;-76
2022/10/22 11:40:57;;;;;;;;;;;26.60;84.50;;;;;;4955230;28;20519;-82
2022/10/22 11:43:34;;;;;;;;;;;28.90;71.30;;;;;;4964509;28;19956;-81
2022/10/22 11:46:23;;;;;;;;;;;29.70;65.70;;;;;;4958849;28;19938;-74
2022/10/22 11:49:02;;;;;;;;;;;31.90;58.40;;;;;;4957440;28;19948;-76
2022/10/22 11:51:28;;;;;;;;;;;31.60;57.70;;;;;;4966517;28;20345;-77
2022/10/22 11:53:55;;;;;;;;;;;31.60;57.30;;;;;;4963671;28;19961;-79
2022/10/22 11:56:22;;;;;;;;;;;32.60;54.20;;;;;;4965114;28;19933;-79
2022/10/22 11:58:53;;;;;;;;;;;33.20;53.10;;;;;;4962291;28;19914;-81
2022/10/22 12:01:28;;;;;;;;;;;33.70;51.70;;;;;;4966171;28;19933;-79
2022/10/22 12:03:56;;;;;;;;;;;32.50;53.00;;;;;;4960687;28;20326;-81
2022/10/22 12:06:23;;;;;;;;;;;32.80;54.10;;;;;;4963519;28;19910;-75
2022/10/22 12:08:48;;;;;;;;;;;32.00;54.30;;;;;;4961014;28;20269;-75
2022/10/22 12:11:35;;;;;;;;;;;31.60;54.80;;;;;;4960558;28;20004;-78
2022/10/22 12:14:15;;;;;;;;;;;31.10;56.10;;;;;;4958133;28;20333;-82
2022/10/22 12:16:41;;;;;;;;;;;27.50;65.40;;;;;;4964942;28;20005;-76
2022/10/22 12:19:22;;;;;;;;;;;25.50;71.60;;;;;;4952240;28;20413;-76
2022/10/22 12:21:51;;;;;;;;;;;27.70;66.50;;;;;;4962698;28;19917;-77
2022/10/22 12:24:18;;;;;;;;;;;30.90;59.30;;;;;;4959931;28;20361;-76
2022/10/22 12:26:45;;;;;;;;;;;30.00;57.80;;;;;;4958782;28;19910;-77
2022/10/22 12:29:12;;;;;;;;;;;31.50;57.00;;;;;;4962753;28;21899;-85
2022/10/22 12:31:39;;;;;;;;;;;32.30;55.20;;;;;;4967733;28;19972;-78
2022/10/22 12:34:04;;;;;;;;;;;29.60;58.40;;;;;;4964320;28;20285;-81
2022/10/22 12:36:31;;;;;;;;;;;28.20;61.50;;;;;;4962496;28;19917;-77
2022/10/22 12:39:01;;;;;;;;;;;26.40;66.40;;;;;;4950186;28;20553;-76
2022/10/22 12:41:34;;;;;;;;;;;24.20;76.90;;;;;;4962343;28;19910;-75
2022/10/22 12:44:00;;;;;;;;;;;28.90;63.90;;;;;;4961639;28;20460;-78
2022/10/22 12:46:27;;;;;;;;;;;32.70;56.00;;;;;;4960008;28;19933;-76
2022/10/22 12:48:54;;;;;;;;;;;35.50;50.60;;;;;;4958355;28;19914;-77
2022/10/22 12:51:20;;;;;;;;;;;35.90;46.70;;;;;;4960689;28;19920;-77
2022/10/22 12:53:53;;;;;;;;;;;36.40;46.50;;;;;;4961994;28;19909;-76
2022/10/22 12:56:22;;;;;;;;;;;36.20;45.90;;;;;;4964583;28;19916;-76
2022/10/22 12:58:51;;;;;;;;;;;35.30;46.10;;;;;;4967813;28;19910;-76
2022/10/22 13:01:17;;;;;;;;;;;34.40;47.50;;;;;;4965382;28;19921;-76
2022/10/22 13:03:49;;;;;;;;;;;36.10;46.40;;;;;;4960983;28;20349;-75
2022/10/22 13:06:17;;;;;;;;;;;36.30;45.40;;;;;;4959049;28;20633;-75
2022/10/22 13:08:43;;;;;;;;;;;36.80;44.60;;;;;;4961618;28;19918;-79
2022/10/22 13:11:10;;;;;;;;;;;37.10;43.10;;;;;;4962161;28;19965;-73
2022/10/22 13:13:35;;;;;;;;;;;37.10;43.40;;;;;;4963671;28;19989;-75
2022/10/22 13:16:22;;;;;;;;;;;37.50;42.20;;;;;;4961043;28;20380;-80
2022/10/22 13:18:48;;;;;;;;;;;37.00;42.50;;;;;;4962443;28;20005;-79
2022/10/22 13:21:25;;;;;;;;;;;37.30;41.90;;;;;;4962671;28;19997;-81
2022/10/22 13:23:54;;;;;;;;;;;35.30;44.00;;;;;;4959426;28;19911;-81
2022/10/22 13:26:20;;;;;;;;;;;33.00;47.80;;;;;;4954291;28;20418;-81
2022/10/22 13:28:49;;;;;;;;;;;31.50;51.20;;;;;;4962543;28;19997;-81
2022/10/22 13:31:19;;;;;;;;;;;28.20;57.50;;;;;;4963870;28;20301;-80
2022/10/22 13:33:50;;;;;;;;;;;25.90;64.40;;;;;;4964065;28;19916;-76
2022/10/22 13:36:16;;;;;;;;;;;24.80;69.10;;;;;;4964577;28;19905;-77
2022/10/22 13:38:42;;;;;;;;;;;24.40;71.00;;;;;;4961296;28;19957;-79
2022/10/22 13:41:31;;;;;;;;;;;23.20;76.20;;;;;;4964012;28;19921;-84
2022/10/22 13:43:57;;;;;;;;;;;22.70;79.30;;;;;;4963955;28;20020;-79
2022/10/22 13:46:23;;;;;;;;;;;22.30;82.70;;;;;;4963054;28;19972;-81
2022/10/22 13:48:49;;;;;;;;;;;21.90;85.70;;;;;;4966669;28;19918;-80
2022/10/22 13:51:16;;;;;;;;;;;21.60;89.10;;;;;;4966595;28;19910;-87
2022/10/22 13:53:42;;;;;;;;;;;21.60;90.10;;;;;;4959640;28;20350;-81
2022/10/22 13:56:11;;;;;;;;;;;21.70;90.60;;;;;;4960849;28;19918;-77
2022/10/22 13:58:37;;;;;;;;;;;21.70;91.10;;;;;;4967652;28;20377;-77
2022/10/22 14:01:07;;;;;;;;;;;21.90;90.70;;;;;;4964459;28;20008;-81
2022/10/22 14:03:36;;;;;;;;;;;23.00;87.00;;;;;;4971334;28;19978;-81
2022/10/22 14:06:02;;;;;;;;;;;26.50;73.70;;;;;;4968105;28;19918;-79
2022/10/22 14:08:27;;;;;;;;;;;28.90;64.20;;;;;;4962040;28;20008;-81
2022/10/22 14:10:53;;;;;;;;;;;30.60;58.20;;;;;;4957533;28;19918;-81
2022/10/22 14:13:25;;;;;;;;;;;29.90;57.50;;;;;;4965798;28;19964;-84
2022/10/22 14:15:51;;;;;;;;;;;30.20;57.50;;;;;;4962587;28;19997;-82
2022/10/22 14:18:30;;;;;;;;;;;29.50;57.10;;;;;;4959912;28;20053;-85
2022/10/22 14:21:12;;;;;;;;;;;28.00;61.10;;;;;;4964165;28;20025;-85
2022/10/22 14:23:38;;;;;;;;;;;29.20;59.40;;;;;;4968382;28;19992;-86
2022/10/22 14:26:06;;;;;;;;;;;29.70;58.30;;;;;;4969481;28;20028;-83